Ever Diamond — 3FQS8 — position and weather

sailwx.info

Track history (hours):
 
Tides and Currents Weather Stations Pressure Air Temp Water Temp Dewpoint Dewpoint Depression Visibility Wind Speed Wind Dir Waves Ship Positions

Ever Diamond

Last reported at 2015-Jul-04 06:22 UTC. Time now 2015-Jul-04 06:59 UTC.
Position N 29°54' E 122°02'.

Type: Ship (hazmat cat D). MMSI: 354893000.

Date/timePositionNaut miles runAvg speedWind from/ knotsBaromVisibWave heightAir tempDewpointWater temp
2015-Jul-04 06:22N 29°54' E 122°02'0 0.0
2015-Jul-04 05:22N 29°54' E 122°02'0 0.0
2015-Jul-04 03:28N 29°54' E 122°02'0 0.0
2015-Jul-04 02:12N 29°54' E 122°02'0 0.0
2015-Jul-04 01:33N 29°54' E 122°02'4 4.2
2015-Jul-04 00:33N 29°55' E 122°07'9 8.8
2015-Jul-03 23:33N 29°49' E 122°14'8 8.4
2015-Jul-03 22:33N 29°44' E 122°22'1111.3
2015-Jul-03 21:34N 29°37' E 122°31'1211.9
2015-Jul-03 20:33N 29°25' E 122°32'1312.8
2015-Jul-03 19:32N 29°12' E 122°32'59212.6
2015-Jul-01 20:31N 22°22' E 114°38'2311.8
2015-Jul-01 18:33N 22°34' E 114°16'1 0.5
2015-Jul-01 17:15N 22°34' E 114°16'0 0.0
2015-Jul-01 15:27N 22°34' E 114°16'0 0.0
2015-Jul-01 14:27N 22°34' E 114°16'0 0.0
2015-Jul-01 12:33N 22°34' E 114°16'0 0.0
2015-Jul-01 09:33N 22°34' E 114°16'0 0.0
2015-Jul-01 07:32N 22°34' E 114°16'18 6.2
2015-Jul-01 04:32N 22°19' E 114°27'5 5.1
2015-Jul-01 03:33N 22°15' E 114°26'8 7.6
2015-Jul-01 02:33N 22°08' E 114°21'10 9.9
2015-Jul-01 01:30N 22°12' E 114°10'8 8.8
2015-Jul-01 00:33N 22°20' E 114°07'1 0.6
2015-Jun-30 23:30N 22°20' E 114°08'0 0.0
2015-Jun-30 22:33N 22°20' E 114°08'0 0.0
2015-Jun-30 21:33N 22°20' E 114°08'0 0.0
2015-Jun-30 20:33N 22°20' E 114°08'0 0.0
2015-Jun-30 19:33N 22°20' E 114°08'0 0.0
2015-Jun-30 18:33N 22°20' E 114°08'0 0.0
2015-Jun-30 17:33N 22°20' E 114°08'0 0.0
2015-Jun-30 16:33N 22°20' E 114°08'0 0.0
2015-Jun-30 15:33N 22°20' E 114°08'0 0.0
2015-Jun-30 14:33N 22°20' E 114°08'0 0.1
2015-Jun-30 13:33N 22°20' E 114°08'0 0.1
2015-Jun-30 12:33N 22°20' E 114°08'0 0.0
2015-Jun-30 11:33N 22°20' E 114°08'2 2.1
2015-Jun-30 10:33N 22°19' E 114°06'1210.6
2015-Jun-30 09:27N 22°09' E 114°13'9 9.4
2015-Jun-30 08:31N 22°09' E 114°23'29514.7
2015-Jun-29 12:28N 22°29' E 119°41'1314.4
2015-Jun-29 11:33N 22°30' E 119°55'1414.0
2015-Jun-29 10:33N 22°32' E 120°10'9 9.3
2015-Jun-29 09:33N 22°33' E 120°20'0 0.0
2015-Jun-28 21:09N 22°33' E 120°20'0 0.1
2015-Jun-28 20:33N 22°33' E 120°20'0 0.0
2015-Jun-28 10:32N 22°33' E 120°20'7 7.4
2015-Jun-28 09:33N 22°30' E 120°12'2 2.4
2015-Jun-28 08:30N 22°28' E 120°11'  
Track history (hours):
 
Tides and Currents Weather Stations Pressure Air Temp Water Temp Dewpoint Dewpoint Depression Visibility Wind Speed Wind Dir Waves Ship Positions

Ever Diamond

Last reported at 2015-Jul-04 06:22 UTC. Time now 2015-Jul-04 06:59 UTC.
Position N 29°54' E 122°02'.

Type: Ship (hazmat cat D). MMSI: 354893000.

Date/timePositionNaut miles runAvg speedWind from/ knotsBaromVisibWave heightAir tempDewpointWater temp
2015-Jul-04 06:22N 29°54' E 122°02'0 0.0
2015-Jul-04 05:22N 29°54' E 122°02'0 0.0
2015-Jul-04 03:28N 29°54' E 122°02'0 0.0
2015-Jul-04 02:12N 29°54' E 122°02'0 0.0
2015-Jul-04 01:33N 29°54' E 122°02'4 4.2
2015-Jul-04 00:33N 29°55' E 122°07'9 8.8
2015-Jul-03 23:33N 29°49' E 122°14'8 8.4
2015-Jul-03 22:33N 29°44' E 122°22'1111.3
2015-Jul-03 21:34N 29°37' E 122°31'1211.9
2015-Jul-03 20:33N 29°25' E 122°32'1312.8
2015-Jul-03 19:32N 29°12' E 122°32'59212.6
2015-Jul-01 20:31N 22°22' E 114°38'2311.8
2015-Jul-01 18:33N 22°34' E 114°16'1 0.5
2015-Jul-01 17:15N 22°34' E 114°16'0 0.0
2015-Jul-01 15:27N 22°34' E 114°16'0 0.0
2015-Jul-01 14:27N 22°34' E 114°16'0 0.0
2015-Jul-01 12:33N 22°34' E 114°16'0 0.0
2015-Jul-01 09:33N 22°34' E 114°16'0 0.0
2015-Jul-01 07:32N 22°34' E 114°16'18 6.2
2015-Jul-01 04:32N 22°19' E 114°27'5 5.1
2015-Jul-01 03:33N 22°15' E 114°26'8 7.6
2015-Jul-01 02:33N 22°08' E 114°21'10 9.9
2015-Jul-01 01:30N 22°12' E 114°10'8 8.8
2015-Jul-01 00:33N 22°20' E 114°07'1 0.6
2015-Jun-30 23:30N 22°20' E 114°08'0 0.0
2015-Jun-30 22:33N 22°20' E 114°08'0 0.0
2015-Jun-30 21:33N 22°20' E 114°08'0 0.0
2015-Jun-30 20:33N 22°20' E 114°08'0 0.0
2015-Jun-30 19:33N 22°20' E 114°08'0 0.0
2015-Jun-30 18:33N 22°20' E 114°08'0 0.0
2015-Jun-30 17:33N 22°20' E 114°08'0 0.0
2015-Jun-30 16:33N 22°20' E 114°08'0 0.0
2015-Jun-30 15:33N 22°20' E 114°08'0 0.0
2015-Jun-30 14:33N 22°20' E 114°08'0 0.1
2015-Jun-30 13:33N 22°20' E 114°08'0 0.1
2015-Jun-30 12:33N 22°20' E 114°08'0 0.0
2015-Jun-30 11:33N 22°20' E 114°08'2 2.1
2015-Jun-30 10:33N 22°19' E 114°06'1210.6
2015-Jun-30 09:27N 22°09' E 114°13'9 9.4
2015-Jun-30 08:31N 22°09' E 114°23'29514.7
2015-Jun-29 12:28N 22°29' E 119°41'1314.4
2015-Jun-29 11:33N 22°30' E 119°55'1414.0
2015-Jun-29 10:33N 22°32' E 120°10'9 9.3
2015-Jun-29 09:33N 22°33' E 120°20'0 0.0
2015-Jun-28 21:09N 22°33' E 120°20'0 0.1
2015-Jun-28 20:33N 22°33' E 120°20'0 0.0
2015-Jun-28 10:32N 22°33' E 120°20'7 7.4
2015-Jun-28 09:33N 22°30' E 120°12'2 2.4
2015-Jun-28 08:30N 22°28' E 120°11'  

Dump ship's entire track history